Progranichnyj, Russia
Current Conditions -  °F | °C
As of 1:00 AM on Friday 31 Oct 2014 (Local Time) from UHWW Reporting Station
Haze Haze  
Wind Chill: 39°   Ceiling: 10000
Heat Index: 39°   Visibility: 1.2mi
Dew Point: 39°   Wind: 2mph
Humidity: 100%   Direction: NA
Pressure: 30.21"   Gusts: NA
Location:  44.4°N, 131.38°E
Report Text: UHWW 301500Z VRB01MPS 2000 BR SCT013 BKN100 04/04 Q1023 NOSIGRMK QFE766/1021 25CLRD70
Loading
Personal Weather Stations






























Interactive Weather Map
Tropical Storm Tracking
New forecast layout! Learn more

10-Day Weather Forecast

Advertisements
Track Severe Weather on mobile